createdAt,value
2022-11-21T00:01:17.646Z,0.00
2022-11-21T00:03:45.764Z,-0.10
2022-11-21T00:06:13.887Z,-0.10
2022-11-21T00:08:41.872Z,-0.10
2022-11-21T00:11:09.656Z,-0.10
2022-11-21T00:13:37.646Z,-0.20
2022-11-21T00:16:09.629Z,-0.20
2022-11-21T00:18:37.446Z,-0.28
2022-11-21T00:21:14.589Z,-0.30
2022-11-21T00:23:47.572Z,-0.40
2022-11-21T00:26:17.411Z,-0.40
2022-11-21T00:28:45.563Z,-0.40
2022-11-21T00:31:23.354Z,-0.40
2022-11-21T00:33:51.029Z,-0.40
2022-11-21T00:36:18.805Z,-0.40
2022-11-21T00:38:46.494Z,-0.40
2022-11-21T00:41:14.260Z,-0.40
2022-11-21T00:43:41.912Z,-0.50
2022-11-21T00:46:09.629Z,-0.50
2022-11-21T00:48:37.333Z,-0.50
2022-11-21T00:51:04.950Z,-0.50
2022-11-21T00:53:32.560Z,-0.60
2022-11-21T00:56:00.276Z,-0.60
2022-11-21T00:58:28.608Z,-0.60
2022-11-21T01:01:11.153Z,-0.60
2022-11-21T01:03:40.052Z,-0.62
2022-11-21T01:06:11.487Z,-0.64
2022-11-21T01:08:42.532Z,-0.66
2022-11-21T01:11:15.149Z,-0.70
2022-11-21T01:13:43.702Z,-0.70
2022-11-21T01:16:17.402Z,-0.70
2022-11-21T01:18:46.421Z,-0.70
2022-11-21T01:21:31.756Z,-0.80
2022-11-21T01:24:01.107Z,-0.80
2022-11-21T01:26:31.193Z,-0.80
2022-11-21T01:28:59.834Z,-0.80
2022-11-21T01:31:30.175Z,-0.80
2022-11-21T01:33:59.925Z,-0.78
2022-11-21T01:36:34.075Z,-0.80
2022-11-21T01:39:05.835Z,-0.80
2022-11-21T01:41:41.129Z,-0.90
2022-11-21T01:44:22.598Z,-0.90
2022-11-21T01:46:52.597Z,-1.00
2022-11-21T01:49:32.654Z,-1.00
2022-11-21T01:52:09.774Z,-1.10
2022-11-21T01:55:11.266Z,-1.10
2022-11-21T01:57:48.302Z,-1.10
2022-11-21T02:00:22.679Z,-1.10
2022-11-21T02:02:58.786Z,-1.20
2022-11-21T02:05:32.928Z,-1.20
2022-11-21T02:08:09.462Z,-1.20
2022-11-21T02:10:47.134Z,-1.20
2022-11-21T02:13:14.907Z,-1.30
2022-11-21T02:15:42.722Z,-1.30
2022-11-21T02:18:10.628Z,-1.40
2022-11-21T02:20:44.700Z,-1.40
2022-11-21T02:23:45.196Z,-1.50
2022-11-21T02:26:13.466Z,-1.50
2022-11-21T02:28:41.449Z,-1.54
2022-11-21T02:31:09.486Z,-1.60
2022-11-21T02:33:37.124Z,-1.60
2022-11-21T02:36:05.419Z,-1.54
2022-11-21T02:38:38.247Z,-1.50
2022-11-21T02:41:16.896Z,-1.50
2022-11-21T02:44:02.672Z,-1.50
2022-11-21T02:46:30.402Z,-1.50
2022-11-21T02:48:59.257Z,-1.50
2022-11-21T02:51:26.920Z,-1.50
2022-11-21T02:53:54.603Z,-1.50
2022-11-21T02:56:22.401Z,-1.52
2022-11-21T02:58:50.436Z,-1.60
2022-11-21T03:01:18.120Z,-1.60
2022-11-21T03:03:45.836Z,-1.68
2022-11-21T03:06:13.485Z,-1.70
2022-11-21T03:08:41.194Z,-1.70
2022-11-21T03:11:08.858Z,-1.60
2022-11-21T03:13:36.522Z,-1.70
2022-11-21T03:16:04.592Z,-1.66
2022-11-21T03:18:32.273Z,-1.60
2022-11-21T03:20:59.920Z,-1.60
2022-11-21T03:23:27.547Z,-1.56
2022-11-21T03:25:55.180Z,-1.50
2022-11-21T03:28:22.834Z,-1.50
2022-11-21T03:30:50.554Z,-1.50
2022-11-21T03:33:18.208Z,-1.50
2022-11-21T03:35:48.192Z,-1.40
2022-11-21T03:38:15.934Z,-1.40
2022-11-21T03:40:43.515Z,-1.40
2022-11-21T03:43:11.234Z,-1.38
2022-11-21T03:45:38.841Z,-1.40
2022-11-21T03:48:06.748Z,-1.30
2022-11-21T03:50:34.422Z,-1.30
2022-11-21T03:53:02.055Z,-1.30
2022-11-21T03:55:29.756Z,-1.30
2022-11-21T03:57:57.363Z,-1.30
2022-11-21T04:00:25.071Z,-1.30
2022-11-21T04:02:52.747Z,-1.30
2022-11-21T04:05:20.437Z,-1.20
2022-11-21T04:07:48.035Z,-1.20
2022-11-21T04:10:15.846Z,-1.20
2022-11-21T04:12:43.423Z,-1.20
2022-11-21T04:15:13.915Z,-1.20
2022-11-21T04:17:42.013Z,-1.20
2022-11-21T04:20:11.033Z,-1.22
2022-11-21T04:22:38.697Z,-1.30
2022-11-21T04:25:07.475Z,-1.28
2022-11-21T04:27:35.209Z,-1.26
2022-11-21T04:30:03.283Z,-1.26
2022-11-21T04:32:30.929Z,-1.20
2022-11-21T04:34:58.627Z,-1.20
2022-11-21T04:37:26.323Z,-1.10
2022-11-21T04:39:54.046Z,-1.10
2022-11-21T04:42:21.794Z,-1.04
2022-11-21T04:44:49.423Z,-1.00
2022-11-21T04:47:17.262Z,-1.00
2022-11-21T04:49:44.932Z,-1.00
2022-11-21T04:52:12.892Z,-1.00
2022-11-21T04:54:40.698Z,-1.00
2022-11-21T04:57:08.561Z,-1.00
2022-11-21T04:59:36.237Z,-1.00
2022-11-21T05:02:03.911Z,-1.00
2022-11-21T05:04:31.657Z,-0.90
2022-11-21T05:06:59.384Z,-0.92
2022-11-21T05:09:27.059Z,-0.96
2022-11-21T05:12:13.747Z,-1.00
2022-11-21T05:14:41.472Z,-1.00
2022-11-21T05:17:09.114Z,-1.04
2022-11-21T05:19:37.307Z,-1.02
2022-11-21T05:22:04.918Z,-1.00
2022-11-21T05:24:32.647Z,-1.00
2022-11-21T05:27:00.345Z,-1.00
2022-11-21T05:29:28.398Z,-0.90
2022-11-21T05:31:56.393Z,-0.90
2022-11-21T05:34:24.156Z,-0.80
2022-11-21T05:36:59.021Z,-0.80
2022-11-21T05:39:27.164Z,-0.80
2022-11-21T05:41:59.889Z,-0.80
2022-11-21T05:44:30.871Z,-0.88
2022-11-21T05:46:58.838Z,-0.90
2022-11-21T05:49:26.670Z,-0.90
2022-11-21T05:51:54.274Z,-0.90
2022-11-21T05:54:22.122Z,-0.90
2022-11-21T05:56:49.799Z,-0.80
2022-11-21T05:59:17.665Z,-0.80
2022-11-21T06:02:03.996Z,-0.80
2022-11-21T06:04:31.830Z,-0.80
2022-11-21T06:07:00.038Z,-0.78
2022-11-21T06:09:27.970Z,-0.74
2022-11-21T06:11:55.686Z,-0.72
2022-11-21T06:14:23.319Z,-0.70
2022-11-21T06:16:51.480Z,-0.70
2022-11-21T06:19:19.205Z,-0.62
2022-11-21T06:21:46.964Z,-0.60
2022-11-21T06:24:19.346Z,-0.60
2022-11-21T06:26:49.646Z,-0.60
2022-11-21T06:29:17.594Z,-0.70
2022-11-21T06:31:45.535Z,-0.70
2022-11-21T06:34:13.437Z,-0.70
2022-11-21T06:36:41.196Z,-0.70
2022-11-21T06:39:09.126Z,-0.70
2022-11-21T06:41:36.867Z,-0.66
2022-11-21T06:44:04.900Z,-0.60
2022-11-21T06:46:32.559Z,-0.60
2022-11-21T06:49:00.458Z,-0.50
2022-11-21T06:51:28.209Z,-0.50
2022-11-21T06:53:59.247Z,-0.50
2022-11-21T06:56:30.617Z,-0.40
2022-11-21T06:58:59.451Z,-0.40
2022-11-21T07:01:27.375Z,-0.40
2022-11-21T07:03:55.850Z,-0.30
2022-11-21T07:06:24.235Z,-0.30
2022-11-21T07:09:17.450Z,-0.20
2022-11-21T07:11:43.064Z,-0.10
2022-11-21T07:14:10.725Z,-0.02
2022-11-21T07:16:38.738Z,0.00
2022-11-21T07:19:06.612Z,0.10
2022-11-21T07:21:34.601Z,0.10
2022-11-21T07:24:02.292Z,0.10
2022-11-21T07:26:30.137Z,0.10
2022-11-21T07:28:58.840Z,0.10
2022-11-21T07:31:26.910Z,0.12
2022-11-21T07:33:54.683Z,0.20
2022-11-21T07:36:22.459Z,0.20
2022-11-21T07:38:50.837Z,0.20
2022-11-21T07:41:18.502Z,0.20
2022-11-21T07:43:46.125Z,0.20
2022-11-21T07:46:13.860Z,0.20
2022-11-21T07:48:41.525Z,0.22
2022-11-21T07:51:10.209Z,0.30
2022-11-21T07:53:38.131Z,0.30
2022-11-21T07:56:09.588Z,0.30
2022-11-21T07:58:37.805Z,0.30
2022-11-21T08:01:07.303Z,0.30
2022-11-21T08:03:35.083Z,0.36
2022-11-21T08:06:05.003Z,0.38
2022-11-21T08:08:32.973Z,0.40
2022-11-21T08:11:05.758Z,0.50
2022-11-21T08:13:35.264Z,0.50
2022-11-21T08:16:05.649Z,0.60
2022-11-21T08:18:33.443Z,0.60
2022-11-21T08:21:03.784Z,0.70
2022-11-21T08:23:32.555Z,0.70
2022-11-21T08:26:01.243Z,0.80
2022-11-21T08:28:29.215Z,0.84
2022-11-21T08:30:57.230Z,0.90
2022-11-21T08:33:25.079Z,1.00
2022-11-21T08:35:53.019Z,1.10
2022-11-21T08:38:20.943Z,1.20
2022-11-21T08:41:12.141Z,1.26
2022-11-21T08:43:42.590Z,1.32
2022-11-21T08:46:10.330Z,1.40
2022-11-21T08:48:38.012Z,1.42
2022-11-21T08:51:05.707Z,1.50
2022-11-21T08:53:33.343Z,1.60
2022-11-21T08:56:04.197Z,1.70
2022-11-21T08:58:32.352Z,1.76
2022-11-21T09:01:00.602Z,1.80
2022-11-21T09:03:31.385Z,1.90
2022-11-21T09:06:00.244Z,2.00
2022-11-21T09:08:30.497Z,2.10
2022-11-21T09:10:59.065Z,2.20
2022-11-21T09:13:27.664Z,2.26
2022-11-21T09:16:19.092Z,2.30
2022-11-21T09:18:52.086Z,2.40
2022-11-21T09:21:21.539Z,2.50
2022-11-21T09:23:49.227Z,2.60
2022-11-21T09:26:16.875Z,2.70
2022-11-21T09:28:44.573Z,2.80
2022-11-21T09:31:12.504Z,2.90
2022-11-21T09:33:40.220Z,3.00
2022-11-21T09:36:07.862Z,3.00
2022-11-21T09:38:35.752Z,3.10
2022-11-21T09:41:36.532Z,3.20
2022-11-21T09:44:25.463Z,3.30
2022-11-21T09:47:11.116Z,3.40
2022-11-21T09:49:47.126Z,3.40
2022-11-21T09:52:21.543Z,3.40
2022-11-21T09:55:00.799Z,3.50
2022-11-21T09:57:34.598Z,3.50
2022-11-21T10:00:14.577Z,3.60
2022-11-21T10:02:42.486Z,3.70
2022-11-21T10:05:15.581Z,3.80
2022-11-21T10:07:44.902Z,3.80
2022-11-21T10:10:30.795Z,3.90
2022-11-21T10:13:32.204Z,3.90
2022-11-21T10:16:13.283Z,3.98
2022-11-21T10:19:05.479Z,4.00
2022-11-21T10:22:21.396Z,4.00
2022-11-21T10:25:15.214Z,4.00
2022-11-21T10:27:50.329Z,4.10
2022-11-21T10:30:21.523Z,4.10
2022-11-21T10:33:06.083Z,4.10
2022-11-21T10:35:49.126Z,4.20
2022-11-21T10:38:31.112Z,4.20
2022-11-21T10:41:20.253Z,4.30
2022-11-21T10:44:22.080Z,4.30
2022-11-21T10:47:00.723Z,4.30
2022-11-21T10:49:34.223Z,4.30
2022-11-21T10:52:14.872Z,4.38
2022-11-21T10:55:18.634Z,4.40
2022-11-21T10:57:51.518Z,4.40
2022-11-21T11:00:20.498Z,4.42
2022-11-21T11:02:57.812Z,4.42
2022-11-21T11:05:28.715Z,4.50
2022-11-21T11:08:12.585Z,4.50
2022-11-21T11:10:46.320Z,4.60
2022-11-21T11:16:19.646Z,4.60
2022-11-21T11:18:58.719Z,4.70
2022-11-21T11:21:56.680Z,4.60
2022-11-21T11:24:27.464Z,4.60
2022-11-21T11:27:02.782Z,4.66
2022-11-21T11:29:35.038Z,4.70
2022-11-21T11:32:20.883Z,4.70
2022-11-21T11:35:04.778Z,4.70
2022-11-21T11:37:42.174Z,4.70
2022-11-21T11:40:30.615Z,4.70
2022-11-21T11:43:56.698Z,4.80
2022-11-21T11:47:08.142Z,4.82
2022-11-21T11:50:11.424Z,4.90
2022-11-21T11:53:13.238Z,4.90
2022-11-21T11:56:01.972Z,4.90
2022-11-21T11:58:48.099Z,4.90
2022-11-21T12:01:34.019Z,4.90
2022-11-21T12:04:16.840Z,4.96
2022-11-21T12:10:18.066Z,5.10
2022-11-21T12:13:18.657Z,5.10
2022-11-21T12:15:52.932Z,5.10
2022-11-21T12:18:21.003Z,5.10
2022-11-21T12:21:12.972Z,5.10
2022-11-21T12:23:54.978Z,5.10
2022-11-21T12:27:04.060Z,5.10
2022-11-21T12:30:06.473Z,5.20
2022-11-21T12:32:57.228Z,5.20
2022-11-21T12:36:18.853Z,5.20
2022-11-21T12:39:20.332Z,5.20
2022-11-21T12:42:38.811Z,5.20
2022-11-21T12:45:34.288Z,5.18
2022-11-21T12:48:57.232Z,5.20
2022-11-21T12:52:08.949Z,5.20
2022-11-21T12:55:10.416Z,5.20
2022-11-21T12:58:01.459Z,5.20
2022-11-21T13:01:16.754Z,5.20
2022-11-21T13:03:58.842Z,5.16
2022-11-21T13:06:31.460Z,5.10
2022-11-21T13:09:02.943Z,5.10
2022-11-21T13:12:13.308Z,5.10
2022-11-21T13:14:52.649Z,5.12
2022-11-21T13:17:42.302Z,5.20
2022-11-21T13:20:33.818Z,5.20
2022-11-21T13:23:06.496Z,5.20
2022-11-21T13:25:47.476Z,5.20
2022-11-21T13:28:18.989Z,5.12
2022-11-21T13:30:52.262Z,5.10
2022-11-21T13:33:35.508Z,5.10
2022-11-21T13:36:34.861Z,5.10
2022-11-21T13:39:03.576Z,5.14
2022-11-21T13:41:52.999Z,5.18
2022-11-21T13:44:33.296Z,5.20
2022-11-21T13:47:25.698Z,5.20
2022-11-21T13:50:21.400Z,5.20
2022-11-21T13:53:04.313Z,5.14
2022-11-21T13:55:55.993Z,5.10
2022-11-21T13:58:38.948Z,5.08
2022-11-21T14:01:30.742Z,5.02
2022-11-21T14:04:39.535Z,5.00
2022-11-21T14:07:37.914Z,5.10
2022-11-21T14:10:38.439Z,5.08
2022-11-21T14:13:06.121Z,5.10
2022-11-21T14:16:07.969Z,5.00
2022-11-21T14:18:38.870Z,5.00
2022-11-21T14:21:09.236Z,5.00
2022-11-21T14:23:45.274Z,4.96
2022-11-21T14:26:19.974Z,4.90
2022-11-21T14:28:48.413Z,4.92
2022-11-21T14:31:16.498Z,5.00
2022-11-21T14:33:47.591Z,5.00
2022-11-21T14:36:23.728Z,5.00
2022-11-21T14:39:28.889Z,5.00
2022-11-21T14:41:51.180Z,4.92
2022-11-21T14:44:22.100Z,4.90
2022-11-21T14:47:01.907Z,4.86
2022-11-21T14:49:29.799Z,4.84
2022-11-21T14:52:17.964Z,4.90
2022-11-21T14:55:27.881Z,4.90
2022-11-21T14:57:45.005Z,4.90
2022-11-21T15:00:57.368Z,4.90
2022-11-21T15:03:23.133Z,4.90
2022-11-21T15:06:07.268Z,4.90
2022-11-21T15:11:59.662Z,4.80
2022-11-21T15:14:36.197Z,4.80
2022-11-21T15:17:12.531Z,4.84
2022-11-21T15:19:43.462Z,4.88
2022-11-21T15:22:31.607Z,4.86
2022-11-21T15:28:31.477Z,4.80
2022-11-21T15:31:21.609Z,4.80
2022-11-21T15:37:16.481Z,4.80
2022-11-21T15:39:48.385Z,4.80
2022-11-21T15:42:31.468Z,4.78
2022-11-21T15:48:02.253Z,4.76
2022-11-21T15:50:29.979Z,4.80
2022-11-21T15:52:57.971Z,4.70
2022-11-21T15:55:29.227Z,4.70
2022-11-21T15:57:10.610Z,4.78
2022-11-21T15:57:57.097Z,4.70
2022-11-21T16:00:24.961Z,4.74
2022-11-21T16:02:52.705Z,4.80
2022-11-21T16:05:20.430Z,4.80
2022-11-21T16:07:48.584Z,4.80
2022-11-21T16:10:24.352Z,4.80
2022-11-21T16:12:55.474Z,4.80
2022-11-21T16:15:23.837Z,4.80
2022-11-21T16:17:52.445Z,4.70
2022-11-21T16:20:20.334Z,4.70
2022-11-21T16:22:48.267Z,4.78
2022-11-21T16:25:17.941Z,4.80
2022-11-21T16:27:47.277Z,4.80
2022-11-21T16:30:15.233Z,4.80
2022-11-21T16:32:42.929Z,4.80
2022-11-21T16:35:10.661Z,4.70
2022-11-21T16:37:38.381Z,4.70
2022-11-21T16:40:07.335Z,4.70
2022-11-21T16:42:35.051Z,4.70
2022-11-21T16:45:03.068Z,4.70
2022-11-21T16:47:30.876Z,4.70
2022-11-21T16:49:58.594Z,4.70
2022-11-21T16:52:26.336Z,4.72
2022-11-21T16:54:53.989Z,4.80
2022-11-21T16:57:21.756Z,4.72
2022-11-21T16:59:50.000Z,4.70
2022-11-21T17:02:17.650Z,4.70
2022-11-21T17:04:45.296Z,4.70
2022-11-21T17:07:13.129Z,4.70
2022-11-21T17:09:40.787Z,4.70
2022-11-21T17:12:09.104Z,4.70
2022-11-21T17:14:36.799Z,4.70
2022-11-21T17:17:04.561Z,4.70
2022-11-21T17:19:32.420Z,4.70
2022-11-21T17:22:00.140Z,4.60
2022-11-21T17:24:28.351Z,4.60
2022-11-21T17:26:57.227Z,4.60
2022-11-21T17:29:25.061Z,4.60
2022-11-21T17:31:52.882Z,4.60
2022-11-21T17:34:22.409Z,4.64
2022-11-21T17:36:50.242Z,4.60
2022-11-21T17:39:18.174Z,4.60
2022-11-21T17:41:45.946Z,4.60
2022-11-21T17:44:17.487Z,4.60
2022-11-21T17:46:45.523Z,4.60
2022-11-21T17:49:13.735Z,4.54
2022-11-21T17:51:41.742Z,4.58
2022-11-21T17:54:09.663Z,4.60
2022-11-21T17:56:45.462Z,4.52
2022-11-21T17:59:15.016Z,4.50
2022-11-21T18:01:42.904Z,4.50
2022-11-21T18:04:15.076Z,4.50
2022-11-21T18:06:43.377Z,4.40
2022-11-21T18:09:13.221Z,4.30
2022-11-21T18:11:41.856Z,4.30
2022-11-21T18:14:12.582Z,4.26
2022-11-21T18:16:46.043Z,4.20
2022-11-21T18:19:17.486Z,4.20
2022-11-21T18:21:46.047Z,4.20
2022-11-21T18:24:13.836Z,4.20
2022-11-21T18:26:41.680Z,4.10
2022-11-21T18:29:35.270Z,4.10
2022-11-21T18:31:58.545Z,4.02
2022-11-21T18:34:26.254Z,4.00
2022-11-21T18:36:54.546Z,4.00
2022-11-21T18:39:24.960Z,4.00
2022-11-21T18:41:52.776Z,4.00
2022-11-21T18:44:22.538Z,3.90
2022-11-21T18:46:50.977Z,3.90
2022-11-21T18:49:18.729Z,3.82
2022-11-21T18:51:46.568Z,3.80
2022-11-21T18:54:14.280Z,3.84
2022-11-21T18:56:42.050Z,3.90
2022-11-21T18:59:10.409Z,3.90
2022-11-21T19:01:39.844Z,3.90
2022-11-21T19:04:08.735Z,3.90
2022-11-21T19:06:36.475Z,3.90
2022-11-21T19:09:04.623Z,3.80
2022-11-21T19:11:32.298Z,3.80
2022-11-21T19:14:01.224Z,3.78
2022-11-21T19:16:31.463Z,3.78
2022-11-21T19:19:32.375Z,3.74
2022-11-21T19:21:47.845Z,3.76
2022-11-21T19:24:16.513Z,3.72
2022-11-21T19:26:44.265Z,3.70
2022-11-21T19:29:12.104Z,3.70
2022-11-21T19:31:45.106Z,3.68
2022-11-21T19:34:14.923Z,3.60
2022-11-21T19:36:44.277Z,3.60
2022-11-21T19:39:12.999Z,3.52
2022-11-21T19:41:41.308Z,3.50
2022-11-21T19:44:10.368Z,3.50
2022-11-21T19:46:39.711Z,3.50
2022-11-21T19:49:10.857Z,3.50
2022-11-21T19:51:42.123Z,3.48
2022-11-21T19:54:12.946Z,3.40
2022-11-21T19:56:40.773Z,3.40
2022-11-21T19:59:12.893Z,3.30
2022-11-21T20:01:41.094Z,3.30
2022-11-21T20:04:11.249Z,3.20
2022-11-21T20:06:42.078Z,3.20
2022-11-21T20:09:14.579Z,3.20
2022-11-21T20:11:46.476Z,3.20
2022-11-21T20:14:21.454Z,3.20
2022-11-21T20:16:52.787Z,3.20
2022-11-21T20:19:24.174Z,3.16
2022-11-21T20:21:53.033Z,3.10
2022-11-21T20:24:20.943Z,3.08
2022-11-21T20:26:48.808Z,3.00
2022-11-21T20:29:16.504Z,2.98
2022-11-21T20:31:44.434Z,2.96
2022-11-21T20:37:00.711Z,3.00
2022-11-21T20:39:32.033Z,3.00
2022-11-21T20:41:59.997Z,3.04
2022-11-21T20:45:36.029Z,3.06
2022-11-21T20:47:18.455Z,3.10
2022-11-21T20:49:46.274Z,3.10
2022-11-21T20:55:01.582Z,3.10
2022-11-21T20:57:30.398Z,3.14
2022-11-21T20:59:58.104Z,3.16
2022-11-21T21:02:26.231Z,3.20
2022-11-21T21:04:54.112Z,3.20
2022-11-21T21:07:21.915Z,3.20
2022-11-21T21:09:49.933Z,3.20
2022-11-21T21:12:17.633Z,3.12
2022-11-21T21:14:45.331Z,3.10
2022-11-21T21:17:12.963Z,3.14
2022-11-21T21:19:40.673Z,3.20
2022-11-21T21:22:09.100Z,3.20
2022-11-21T21:24:36.973Z,3.20
2022-11-21T21:27:04.667Z,3.20
2022-11-21T21:29:32.641Z,3.10
2022-11-21T21:32:00.729Z,3.10
2022-11-21T21:34:28.916Z,3.10
2022-11-21T21:36:56.753Z,3.10
2022-11-21T21:39:25.209Z,3.10
2022-11-21T21:41:53.325Z,3.10
2022-11-21T21:44:21.971Z,3.10
2022-11-21T21:46:49.661Z,3.10
2022-11-21T21:49:17.412Z,3.10
2022-11-21T21:51:45.182Z,3.10
2022-11-21T21:54:19.897Z,3.02
2022-11-21T21:56:48.496Z,3.00
2022-11-21T21:59:18.116Z,3.00
2022-11-21T22:01:46.159Z,3.00
2022-11-21T22:04:13.925Z,2.96
2022-11-21T22:06:41.852Z,2.92
2022-11-21T22:09:09.647Z,2.90
2022-11-21T22:11:39.199Z,2.90
2022-11-21T22:14:16.582Z,2.90
2022-11-21T22:16:44.422Z,2.90
2022-11-21T22:19:12.617Z,2.90
2022-11-21T22:21:40.233Z,2.84
2022-11-21T22:24:30.027Z,2.90
2022-11-21T22:26:57.833Z,2.84
2022-11-21T22:29:25.809Z,2.90
2022-11-21T22:31:53.867Z,2.90
2022-11-21T22:34:22.063Z,2.90
2022-11-21T22:36:49.897Z,2.90
2022-11-21T22:39:18.011Z,2.90
2022-11-21T22:41:45.984Z,2.88
2022-11-21T22:44:13.696Z,2.80
2022-11-21T22:46:41.361Z,2.80
2022-11-21T22:49:09.076Z,2.72
2022-11-21T22:51:36.841Z,2.70
2022-11-21T22:54:04.619Z,2.70
2022-11-21T22:56:32.334Z,2.70
2022-11-21T22:58:59.964Z,2.70
2022-11-21T23:01:27.746Z,2.64
2022-11-21T23:03:55.849Z,2.60
2022-11-21T23:06:26.620Z,2.50
2022-11-21T23:08:57.068Z,2.50
2022-11-21T23:11:36.216Z,2.44
2022-11-21T23:14:07.853Z,2.40
2022-11-21T23:16:35.583Z,2.38
2022-11-21T23:19:03.738Z,2.40
2022-11-21T23:21:31.533Z,2.30
2022-11-21T23:23:59.327Z,2.30
2022-11-21T23:26:27.006Z,2.30
2022-11-21T23:28:54.678Z,2.22
2022-11-21T23:31:22.435Z,2.20
2022-11-21T23:33:50.277Z,2.10
2022-11-21T23:36:17.925Z,2.10
2022-11-21T23:38:45.670Z,2.10
2022-11-21T23:41:13.363Z,2.10
2022-11-21T23:43:40.985Z,2.10
2022-11-21T23:46:08.786Z,2.10
2022-11-21T23:48:36.519Z,2.10
2022-11-21T23:51:04.322Z,2.10
2022-11-21T23:53:31.990Z,2.10
2022-11-21T23:55:59.717Z,2.00
2022-11-21T23:58:28.126Z,2.00
